Time;durP1;ratioP1;P1;durP2;ratioP2;P2;SDS_P1;SDS_P2;PMS_P1;PMS_P2;Temp;Humidity;BMP_temperature;BMP_pressure;BME280_temperature;BME280_humidity;BME280_pressure;Samples;Min_cycle;Max_cycle;Signal;HPM_P1;HPM_P2
2021/07/23 00:00:42;;;;;;;22.08;19.33;;;15.60;99.90;;;;;;5091045;28;20388;-86
2021/07/23 00:03:08;;;;;;;21.03;18.80;;;15.60;99.90;;;;;;5090792;28;20954;-86
2021/07/23 00:05:34;;;;;;;20.30;17.55;;;15.50;99.90;;;;;;5072875;28;20935;-85
2021/07/23 00:07:59;;;;;;;22.15;17.88;;;15.50;99.90;;;;;;5072407;28;20404;-86
2021/07/23 00:10:25;;;;;;;23.40;18.43;;;15.40;99.90;;;;;;5072872;28;20434;-85
2021/07/23 00:12:50;;;;;;;22.98;19.98;;;15.40;99.90;;;;;;5072628;28;20937;-86
2021/07/23 00:15:16;;;;;;;22.93;19.33;;;15.40;99.90;;;;;;5072626;28;20407;-86
2021/07/23 00:17:42;;;;;;;20.27;18.02;;;15.30;99.90;;;;;;5090611;28;20388;-84
2021/07/23 00:20:08;;;;;;;23.58;19.50;;;15.20;99.90;;;;;;5072384;28;20921;-86
2021/07/23 00:22:34;;;;;;;22.02;19.23;;;15.20;99.90;;;;;;5090631;28;20415;-86
2021/07/23 00:24:59;;;;;;;21.83;18.60;;;15.10;99.90;;;;;;5072679;28;20404;-85
2021/07/23 00:27:25;;;;;;;24.05;18.95;;;15.10;99.90;;;;;;5072531;28;21109;-86
2021/07/23 00:29:50;;;;;;;21.10;18.53;;;15.10;99.90;;;;;;5072280;28;20399;-85
2021/07/23 00:32:16;;;;;;;20.87;17.97;;;15.00;99.90;;;;;;5090557;28;20381;-85
2021/07/23 00:34:41;;;;;;;19.42;16.83;;;14.90;99.90;;;;;;5090209;28;20479;-85
2021/07/23 00:37:07;;;;;;;22.97;17.80;;;15.00;99.90;;;;;;5072143;28;20391;-86
2021/07/23 00:39:33;;;;;;;20.40;17.98;;;14.90;99.90;;;;;;5073481;28;20408;-84
2021/07/23 00:41:58;;;;;;;22.07;17.90;;;14.90;99.90;;;;;;5094307;28;20408;-88
2021/07/23 00:44:24;;;;;;;24.80;18.87;;;14.90;99.90;;;;;;5076276;28;20369;-85
2021/07/23 00:46:50;;;;;;;21.38;18.90;;;14.90;99.90;;;;;;5094413;28;20403;-86
2021/07/23 00:49:15;;;;;;;24.30;19.00;;;15.00;99.90;;;;;;5094172;28;20456;-87
2021/07/23 00:51:41;;;;;;;21.13;18.83;;;15.00;99.90;;;;;;5075951;28;20380;-86
2021/07/23 00:54:08;;;;;;;23.60;19.42;;;15.00;99.90;;;;;;5075925;28;20379;-86
2021/07/23 00:56:36;;;;;;;21.63;18.90;;;15.00;99.90;;;;;;5075587;28;20392;-87
2021/07/23 00:59:02;;;;;;;23.48;18.70;;;15.10;99.90;;;;;;5093908;28;20882;-87
2021/07/23 01:01:29;;;;;;;22.37;19.30;;;15.10;99.90;;;;;;5075553;28;20487;-86
2021/07/23 01:03:55;;;;;;;21.58;17.90;;;15.10;99.90;;;;;;5075576;28;20750;-85
2021/07/23 01:06:22;;;;;;;22.92;18.65;;;15.10;99.90;;;;;;5075740;28;20381;-86
2021/07/23 01:08:47;;;;;;;20.75;17.80;;;15.10;99.90;;;;;;5075840;28;20373;-86
2021/07/23 01:11:13;;;;;;;19.75;17.38;;;15.10;99.90;;;;;;5075540;28;20479;-86
2021/07/23 01:13:40;;;;;;;28.30;18.77;;;15.20;99.90;;;;;;5075617;28;20417;-87
2021/07/23 01:16:05;;;;;;;21.50;18.95;;;15.20;99.90;;;;;;5075393;28;20461;-87
2021/07/23 01:18:31;;;;;;;22.75;18.98;;;15.20;99.90;;;;;;5093322;28;20463;-87
2021/07/23 01:20:58;;;;;;;20.30;17.57;;;15.20;99.90;;;;;;5075163;28;20476;-86
2021/07/23 01:23:31;;;;;;;19.92;17.67;;;15.20;99.90;;;;;;5093488;28;20399;-87
2021/07/23 01:25:58;;;;;;;22.23;19.33;;;15.10;99.90;;;;;;5075052;28;20377;-87
2021/07/23 01:28:29;;;;;;;20.80;18.15;;;15.00;99.90;;;;;;5093267;28;20380;-87
2021/07/23 01:30:54;;;;;;;22.08;18.90;;;15.00;99.90;;;;;;5075206;28;20387;-87
2021/07/23 01:33:20;;;;;;;21.40;17.63;;;14.90;99.90;;;;;;5075049;28;20813;-87
2021/07/23 01:35:46;;;;;;;21.77;19.07;;;14.90;99.90;;;;;;5074904;28;20391;-87
2021/07/23 01:38:14;;;;;;;25.98;19.85;;;14.90;99.90;;;;;;5074967;28;20959;-87
2021/07/23 01:40:41;;;;;;;23.30;19.33;;;14.80;99.90;;;;;;5074918;28;20549;-86
2021/07/23 01:43:07;;;;;;;22.55;19.23;;;14.80;99.90;;;;;;5093030;28;20456;-87
2021/07/23 01:45:33;;;;;;;22.05;18.27;;;14.70;99.90;;;;;;5074606;28;20476;-87
2021/07/23 01:47:58;;;;;;;20.15;17.73;;;14.70;99.90;;;;;;5074448;28;20378;-87
2021/07/23 01:50:24;;;;;;;21.10;17.77;;;14.60;99.90;;;;;;5092534;28;20369;-87
2021/07/23 01:52:49;;;;;;;18.23;16.02;;;14.60;99.90;;;;;;5074057;28;20412;-88
2021/07/23 01:55:15;;;;;;;19.77;16.70;;;14.60;99.90;;;;;;5074568;28;20376;-87
2021/07/23 01:57:41;;;;;;;18.50;16.30;;;14.50;99.90;;;;;;5074703;28;20518;-87
2021/07/23 02:00:07;;;;;;;19.38;17.17;;;14.50;99.90;;;;;;5074751;28;20376;-87
2021/07/23 02:02:34;;;;;;;18.02;15.50;;;14.50;99.90;;;;;;5074394;28;20372;-87
2021/07/23 02:05:00;;;;;;;18.27;16.20;;;14.50;99.90;;;;;;5074338;28;20416;-87
2021/07/23 02:07:29;;;;;;;18.83;16.20;;;14.40;99.90;;;;;;5074514;28;20373;-87
2021/07/23 02:09:55;;;;;;;18.88;16.02;;;14.40;99.90;;;;;;5074357;28;20879;-87
2021/07/23 02:12:20;;;;;;;20.90;16.90;;;14.30;99.90;;;;;;5074336;28;20369;-87
2021/07/23 02:14:46;;;;;;;19.77;16.40;;;14.30;99.90;;;;;;5074303;28;20809;-88
2021/07/23 02:17:13;;;;;;;18.52;16.08;;;14.30;99.90;;;;;;5074258;28;20383;-87
2021/07/23 02:19:39;;;;;;;19.40;16.23;;;14.30;99.90;;;;;;5074505;28;20412;-87
2021/07/23 02:22:06;;;;;;;20.48;17.33;;;14.40;99.90;;;;;;5074146;28;20404;-87
2021/07/23 02:24:31;;;;;;;18.30;16.45;;;14.30;99.90;;;;;;5074267;28;20413;-88
2021/07/23 02:26:57;;;;;;;18.92;17.00;;;14.30;99.90;;;;;;5074096;28;20720;-86
2021/07/23 02:29:23;;;;;;;21.63;16.58;;;14.30;99.90;;;;;;5092145;28;20373;-89
2021/07/23 02:31:49;;;;;;;17.58;15.68;;;14.30;99.90;;;;;;5074517;28;20421;-86
2021/07/23 02:34:15;;;;;;;17.93;15.97;;;14.20;99.90;;;;;;5092770;28;20376;-88
2021/07/23 02:36:40;;;;;;;18.23;16.30;;;14.30;99.90;;;;;;5092052;28;20950;-88
2021/07/23 02:39:06;;;;;;;19.67;17.58;;;14.20;99.90;;;;;;5074262;28;20951;-88
2021/07/23 02:41:31;;;;;;;20.50;16.73;;;14.20;99.90;;;;;;5074445;28;20471;-88
2021/07/23 02:43:57;;;;;;;20.20;17.00;;;14.20;99.90;;;;;;5074187;28;20364;-88
2021/07/23 02:46:22;;;;;;;21.60;17.17;;;14.20;99.90;;;;;;5074034;28;20931;-87
2021/07/23 02:48:48;;;;;;;19.58;17.40;;;14.20;99.90;;;;;;5074101;28;20384;-88
2021/07/23 02:51:14;;;;;;;23.13;18.27;;;14.20;99.90;;;;;;5075180;28;20385;-85
2021/07/23 02:53:39;;;;;;;21.93;18.20;;;14.30;99.90;;;;;;5082422;28;20900;-87
2021/07/23 02:56:07;;;;;;;21.25;18.45;;;14.30;99.90;;;;;;5075466;28;20384;-89
2021/07/23 02:58:35;;;;;;;23.10;18.20;;;14.40;99.90;;;;;;5074692;28;20414;-88
2021/07/23 03:01:04;;;;;;;23.50;17.85;;;14.50;99.90;;;;;;5073721;28;20946;-86
2021/07/23 03:03:29;;;;;;;21.25;18.02;;;14.50;99.90;;;;;;5073683;28;20742;-87
2021/07/23 03:05:56;;;;;;;25.50;19.33;;;14.50;99.90;;;;;;5073761;28;20444;-88
2021/07/23 03:08:22;;;;;;;25.00;18.97;;;14.50;99.90;;;;;;5091688;28;20473;-88
2021/07/23 03:10:47;;;;;;;24.55;19.15;;;14.50;99.90;;;;;;5073719;28;20509;-87
2021/07/23 03:13:13;;;;;;;25.43;19.77;;;14.40;99.90;;;;;;5091700;28;20487;-88
2021/07/23 03:15:38;;;;;;;27.40;20.03;;;14.50;99.90;;;;;;5073991;28;20420;-89
2021/07/23 03:18:04;;;;;;;23.75;19.40;;;14.50;99.90;;;;;;5073488;28;20384;-88
2021/07/23 03:20:29;;;;;;;24.73;20.17;;;14.50;99.90;;;;;;5091694;28;20393;-87
2021/07/23 03:22:55;;;;;;;24.33;20.15;;;14.50;99.90;;;;;;5073251;28;20381;-87
2021/07/23 03:25:21;;;;;;;26.50;20.80;;;14.40;99.90;;;;;;5073416;28;20400;-87
2021/07/23 03:27:46;;;;;;;26.40;20.50;;;14.40;99.90;;;;;;5073191;28;20364;-91
2021/07/23 03:30:12;;;;;;;23.93;19.73;;;14.30;99.90;;;;;;5073849;28;20381;-88
2021/07/23 03:32:38;;;;;;;25.43;19.90;;;14.30;99.90;;;;;;5073517;28;20369;-87
2021/07/23 03:35:04;;;;;;;22.63;18.60;;;14.30;99.90;;;;;;5091489;28;20716;-89
2021/07/23 03:37:30;;;;;;;24.38;19.98;;;14.30;99.90;;;;;;5073480;28;20433;-89
2021/07/23 03:39:55;;;;;;;26.73;21.38;;;14.30;99.90;;;;;;5073328;28;20886;-87
2021/07/23 03:42:21;;;;;;;21.87;19.10;;;14.40;99.90;;;;;;5073053;28;20389;-88
2021/07/23 03:44:47;;;;;;;24.80;20.33;;;14.50;99.90;;;;;;5073276;28;21138;-89
2021/07/23 03:47:13;;;;;;;22.23;19.13;;;14.50;99.90;;;;;;5073304;28;20907;-88
2021/07/23 03:49:39;;;;;;;22.90;19.23;;;14.60;99.90;;;;;;5073168;28;20429;-90
2021/07/23 03:52:05;;;;;;;23.93;20.80;;;14.70;99.90;;;;;;5073268;28;20738;-88
2021/07/23 03:54:30;;;;;;;25.35;20.50;;;14.80;99.90;;;;;;5073400;28;20380;-89
2021/07/23 03:56:56;;;;;;;24.47;20.17;;;14.80;99.90;;;;;;5072715;28;20388;-87
2021/07/23 03:59:22;;;;;;;23.10;18.20;;;14.90;99.90;;;;;;5073037;28;20874;-88
2021/07/23 04:01:47;;;;;;;23.70;19.98;;;15.00;99.90;;;;;;5073084;28;20411;-87
2021/07/23 04:04:13;;;;;;;21.07;18.77;;;14.90;99.90;;;;;;5073148;28;20379;-89
2021/07/23 04:06:38;;;;;;;22.27;18.20;;;14.90;99.90;;;;;;5073216;28;20384;-88
2021/07/23 04:09:06;;;;;;;21.17;18.07;;;14.90;99.90;;;;;;5073166;28;20700;-90
2021/07/23 04:11:38;;;;;;;21.45;19.20;;;14.90;99.90;;;;;;5072844;28;20475;-88
2021/07/23 04:14:03;;;;;;;26.73;20.25;;;14.90;99.90;;;;;;5090427;28;20945;-89
2021/07/23 04:16:29;;;;;;;24.90;21.47;;;15.00;99.90;;;;;;5090934;28;20463;-89
2021/07/23 04:18:54;;;;;;;24.67;20.60;;;15.10;99.90;;;;;;5072845;28;20379;-89
2021/07/23 04:21:20;;;;;;;24.13;20.37;;;15.10;99.90;;;;;;5072805;28;20420;-90
2021/07/23 04:23:46;;;;;;;26.58;21.85;;;15.20;99.90;;;;;;5073122;28;21007;-87
2021/07/23 04:26:11;;;;;;;24.88;21.85;;;15.40;99.90;;;;;;5072460;28;20863;-89
2021/07/23 04:28:37;;;;;;;24.87;20.73;;;15.40;99.90;;;;;;5090679;28;20371;-88
2021/07/23 04:31:03;;;;;;;26.30;22.10;;;15.60;99.90;;;;;;5090678;28;20369;-87
2021/07/23 04:33:28;;;;;;;25.73;21.83;;;15.70;99.90;;;;;;5072704;28;20386;-92
2021/07/23 04:35:54;;;;;;;26.65;22.55;;;16.00;99.90;;;;;;5072787;28;20392;-88
2021/07/23 04:38:19;;;;;;;27.10;21.93;;;16.10;99.90;;;;;;5072810;28;20379;-88
2021/07/23 04:40:45;;;;;;;25.13;20.95;;;16.30;99.90;;;;;;5072562;28;20418;-90
2021/07/23 04:43:13;;;;;;;27.73;21.50;;;16.50;99.90;;;;;;5073141;28;20377;-91
2021/07/23 04:45:40;;;;;;;25.02;21.50;;;16.50;99.90;;;;;;5072258;28;20419;-89
2021/07/23 04:48:05;;;;;;;23.60;21.10;;;16.50;99.90;;;;;;5071697;28;20381;-89
2021/07/23 04:50:31;;;;;;;24.53;21.87;;;16.50;99.90;;;;;;5072217;28;20484;-88
2021/07/23 04:52:57;;;;;;;24.83;21.30;;;16.50;99.90;;;;;;5090087;28;20388;-90
2021/07/23 04:55:23;;;;;;;24.90;22.30;;;16.60;99.90;;;;;;5072906;28;20397;-88
2021/07/23 04:57:49;;;;;;;24.40;21.80;;;16.50;99.90;;;;;;5072037;28;20435;-88
2021/07/23 05:00:16;;;;;;;23.27;20.02;;;16.50;99.90;;;;;;5072710;28;20381;-90
2021/07/23 05:02:42;;;;;;;24.17;20.83;;;16.60;99.90;;;;;;5072828;28;20885;-87
2021/07/23 05:05:14;;;;;;;23.10;20.70;;;16.60;99.90;;;;;;5073712;28;20368;-90
2021/07/23 05:07:40;;;;;;;25.88;20.17;;;16.70;99.90;;;;;;5072210;28;20391;-87
2021/07/23 05:10:06;;;;;;;22.90;19.95;;;16.80;99.90;;;;;;5071886;28;20384;-88
2021/07/23 05:12:32;;;;;;;21.38;18.88;;;16.90;99.90;;;;;;5071922;28;20840;-87
2021/07/23 05:14:58;;;;;;;22.00;18.30;;;17.10;99.90;;;;;;5071734;28;20403;-86
2021/07/23 05:17:24;;;;;;;20.75;17.52;;;17.30;99.90;;;;;;5092973;28;20428;-86
2021/07/23 05:19:50;;;;;;;21.33;19.10;;;17.50;99.90;;;;;;5103776;28;20375;-87
2021/07/23 05:22:16;;;;;;;22.70;18.77;;;17.50;99.90;;;;;;5102678;28;20404;-87
2021/07/23 05:24:42;;;;;;;22.88;19.90;;;17.50;99.90;;;;;;5129055;28;20365;-87
2021/07/23 05:27:07;;;;;;;21.90;19.60;;;17.50;99.90;;;;;;5114047;27;20886;-88
2021/07/23 05:29:33;;;;;;;22.17;19.93;;;17.40;99.90;;;;;;5134133;27;20735;-88
2021/07/23 05:31:58;;;;;;;20.90;18.70;;;17.60;99.90;;;;;;5115829;27;20415;-86
2021/07/23 05:34:24;;;;;;;21.30;19.10;;;17.70;99.90;;;;;;5115711;27;20365;-88
2021/07/23 05:36:50;;;;;;;19.47;17.50;;;17.80;99.90;;;;;;5115810;27;20366;-84
2021/07/23 05:39:15;;;;;;;20.60;18.43;;;17.90;99.90;;;;;;5115416;27;20771;-85
2021/07/23 05:41:41;;;;;;;21.20;18.17;;;17.80;99.90;;;;;;5115643;27;20400;-86
2021/07/23 05:44:07;;;;;;;19.90;17.93;;;17.90;99.90;;;;;;5115369;27;20377;-85
2021/07/23 05:46:33;;;;;;;19.90;17.55;;;17.80;99.90;;;;;;5115561;27;20423;-85
2021/07/23 05:48:58;;;;;;;20.17;18.08;;;17.90;99.90;;;;;;5114933;27;20369;-88
2021/07/23 05:51:24;;;;;;;19.50;17.43;;;17.80;99.90;;;;;;5115743;27;20377;-85
2021/07/23 05:53:50;;;;;;;20.77;18.57;;;17.80;99.90;;;;;;5115299;27;20362;-86
2021/07/23 05:56:15;;;;;;;19.42;17.38;;;17.80;99.90;;;;;;5115642;27;20476;-86
2021/07/23 05:58:41;;;;;;;19.85;17.85;;;18.00;99.90;;;;;;5116178;27;20472;-89
2021/07/23 06:01:08;;;;;;;19.00;16.97;;;18.20;99.90;;;;;;5115833;27;20950;-90
2021/07/23 06:03:37;;;;;;;20.60;17.80;;;18.30;99.90;;;;;;5115958;27;20369;-89
2021/07/23 06:06:04;;;;;;;19.17;16.87;;;18.30;99.90;;;;;;5115729;27;20381;-89
2021/07/23 06:08:30;;;;;;;19.17;17.10;;;18.30;99.90;;;;;;5116121;27;20372;-91
2021/07/23 06:10:55;;;;;;;20.13;16.17;;;18.40;99.90;;;;;;5115847;27;20890;-89
2021/07/23 06:13:21;;;;;;;17.93;16.13;;;18.40;99.90;;;;;;5134361;27;20422;-89
2021/07/23 06:15:47;;;;;;;17.92;16.13;;;18.60;99.90;;;;;;5135961;27;20373;-92
2021/07/23 06:18:12;;;;;;;17.57;15.00;;;18.80;99.90;;;;;;5116830;27;20392;-86
2021/07/23 06:20:40;;;;;;;16.20;14.50;;;19.20;99.90;;;;;;5115501;27;20472;-87
2021/07/23 06:23:05;;;;;;;16.02;12.95;;;19.60;99.90;;;;;;5115433;27;20443;-88
2021/07/23 06:25:31;;;;;;;16.40;13.30;;;19.80;99.90;;;;;;5115703;27;20397;-89
2021/07/23 06:27:56;;;;;;;14.85;12.77;;;20.00;99.90;;;;;;5115954;27;20471;-88
2021/07/23 06:30:22;;;;;;;14.10;12.60;;;20.30;99.90;;;;;;5115280;27;20379;-85
2021/07/23 06:32:47;;;;;;;14.80;12.90;;;20.40;99.90;;;;;;5115820;27;20369;-90
2021/07/23 06:35:13;;;;;;;17.42;12.80;;;20.40;99.90;;;;;;5119073;27;20479;-87
2021/07/23 06:37:43;;;;;;;15.30;12.27;;;20.50;99.90;;;;;;5127831;27;20392;-90
2021/07/23 06:40:09;;;;;;;13.23;11.55;;;20.70;99.90;;;;;;5114434;28;20427;-88
2021/07/23 06:42:36;;;;;;;15.40;11.70;;;21.10;99.90;;;;;;5099132;28;20470;-85
2021/07/23 06:45:03;;;;;;;12.85;11.55;;;21.40;99.90;;;;;;5095860;28;20391;-89
2021/07/23 06:47:28;;;;;;;13.13;10.85;;;21.40;99.90;;;;;;5113992;28;20380;-90
2021/07/23 06:50:04;;;;;;;15.48;10.20;;;21.50;99.90;;;;;;5097999;28;20379;-90
2021/07/23 06:52:29;;;;;;;10.98;9.98;;;21.90;99.90;;;;;;5115054;28;20428;-91
2021/07/23 06:54:55;;;;;;;11.87;10.60;;;22.40;99.90;;;;;;5097435;28;20371;-88
2021/07/23 06:57:21;;;;;;;12.35;10.48;;;22.60;99.90;;;;;;5112965;28;20379;-92
2021/07/23 06:59:49;;;;;;;12.27;10.73;;;22.80;99.90;;;;;;5095201;28;20896;-88
2021/07/23 07:02:15;;;;;;;13.13;10.23;;;22.90;99.90;;;;;;5096563;28;20479;-91
2021/07/23 07:04:42;;;;;;;10.63;9.10;;;23.00;99.90;;;;;;5095143;28;20378;-88
2021/07/23 07:07:13;;;;;;;12.33;9.70;;;23.30;99.90;;;;;;5091352;28;20398;-90
2021/07/23 07:09:40;;;;;;;12.88;9.80;;;23.50;99.90;;;;;;5087833;28;20420;-85
2021/07/23 07:12:05;;;;;;;11.75;9.50;;;23.70;99.90;;;;;;5093188;28;20427;-86
2021/07/23 07:14:31;;;;;;;13.17;10.50;;;23.70;99.90;;;;;;5107790;28;20835;-86
2021/07/23 07:16:56;;;;;;;10.93;9.82;;;23.40;99.90;;;;;;5096998;28;20382;-86
2021/07/23 07:19:22;;;;;;;13.87;9.77;;;23.20;99.90;;;;;;5095835;28;20374;-89
2021/07/23 07:21:49;;;;;;;12.10;10.15;;;23.30;99.90;;;;;;5093564;28;20399;-90
2021/07/23 07:24:20;;;;;;;12.70;10.07;;;23.00;99.90;;;;;;5093520;28;20382;-89
2021/07/23 07:26:48;;;;;;;11.95;10.07;;;22.70;99.90;;;;;;5078025;28;20392;-93
2021/07/23 07:29:14;;;;;;;11.40;9.90;;;22.80;99.90;;;;;;5073388;28;20380;-87
2021/07/23 07:31:40;;;;;;;11.95;10.43;;;22.80;99.90;;;;;;5091453;28;20381;-89
2021/07/23 07:34:16;;;;;;;10.87;9.77;;;22.70;99.90;;;;;;5095905;28;20381;-91
2021/07/23 07:36:41;;;;;;;12.50;9.10;;;22.60;99.90;;;;;;5105305;28;20390;-88
2021/07/23 07:39:09;;;;;;;10.90;9.73;;;22.80;99.90;;;;;;5108358;28;20382;-88
2021/07/23 07:41:38;;;;;;;11.77;9.20;;;22.70;99.90;;;;;;5108357;28;20401;-90
2021/07/23 07:44:04;;;;;;;32.33;11.38;;;23.00;99.90;;;;;;5091060;28;20367;-88
2021/07/23 07:46:30;;;;;;;12.70;8.97;;;23.30;99.90;;;;;;5090552;28;20382;-90
2021/07/23 07:48:56;;;;;;;14.80;8.95;;;23.90;99.90;;;;;;5090241;28;21374;-88
2021/07/23 07:51:22;;;;;;;11.57;8.67;;;24.30;99.90;;;;;;5091040;28;20421;-89
2021/07/23 07:53:49;;;;;;;11.70;8.25;;;24.50;99.90;;;;;;5090101;28;20402;-88
2021/07/23 07:56:15;;;;;;;12.52;8.68;;;24.70;99.90;;;;;;5089614;28;20383;-87
2021/07/23 07:58:41;;;;;;;10.77;8.02;;;24.50;99.90;;;;;;5090018;28;20864;-88
2021/07/23 08:01:10;;;;;;;9.07;7.68;;;24.40;99.90;;;;;;5089861;28;20390;-88
2021/07/23 08:03:36;;;;;;;10.50;7.53;;;24.30;99.90;;;;;;5108409;28;20386;-90
2021/07/23 08:06:11;;;;;;;10.23;7.72;;;24.30;99.90;;;;;;5090603;28;20475;-93
2021/07/23 08:08:37;;;;;;;9.25;8.15;;;24.40;99.90;;;;;;5092094;28;20706;-90
2021/07/23 08:11:02;;;;;;;10.10;7.40;;;24.60;99.90;;;;;;5092215;28;20402;-86
2021/07/23 08:13:36;;;;;;;12.60;7.70;;;24.70;99.90;;;;;;5091090;28;20868;-87
2021/07/23 08:16:03;;;;;;;9.90;7.53;;;24.50;99.90;;;;;;5093245;28;20461;-89
2021/07/23 08:18:29;;;;;;;9.25;7.45;;;24.40;99.90;;;;;;5091563;28;20464;-92
2021/07/23 08:20:55;;;;;;;11.02;7.57;;;24.50;99.90;;;;;;5090959;28;20610;-91
2021/07/23 08:23:21;;;;;;;9.77;7.33;;;24.40;99.90;;;;;;5090508;28;20371;-91
2021/07/23 08:25:49;;;;;;;9.80;6.97;;;24.40;99.90;;;;;;5092157;28;20371;-91
2021/07/23 08:28:16;;;;;;;10.20;7.30;;;24.50;99.90;;;;;;5110538;28;20367;-87
2021/07/23 08:30:42;;;;;;;11.13;7.45;;;24.30;99.90;;;;;;5093271;28;20386;-87
2021/07/23 08:33:08;;;;;;;9.45;7.32;;;24.20;99.90;;;;;;5110746;28;20373;-87
2021/07/23 08:35:35;;;;;;;9.53;7.10;;;24.10;99.90;;;;;;5092797;28;20418;-88
2021/07/23 08:59:32;;;;;;;8.10;6.55;;;23.20;99.90;;;;;;5117744;27;20354;-87
2021/07/23 09:02:06;;;;;;;7.82;6.38;;;23.50;99.90;;;;;;5083725;28;20951;-92
2021/07/23 09:04:36;;;;;;;10.70;5.95;;;23.60;99.90;;;;;;5084689;28;20739;-85
2021/07/23 09:07:14;;;;;;;8.15;5.97;;;23.80;99.90;;;;;;5085097;28;20476;-87
2021/07/23 09:09:40;;;;;;;13.70;6.40;;;24.20;99.90;;;;;;5084828;28;20386;-88
2021/07/23 09:12:07;;;;;;;8.75;6.10;;;24.60;99.90;;;;;;5084524;28;20465;-89
2021/07/23 09:14:33;;;;;;;9.13;5.85;;;25.00;99.90;;;;;;5085059;28;20374;-89
2021/07/23 09:16:58;;;;;;;12.07;6.07;;;25.20;99.90;;;;;;5084847;28;20380;-91
2021/07/23 09:19:24;;;;;;;13.60;6.73;;;25.10;99.90;;;;;;5084147;28;20386;-87
2021/07/23 09:21:58;;;;;;;9.85;6.20;;;24.90;99.90;;;;;;5084691;28;20385;-88
2021/07/23 09:24:24;;;;;;;8.97;5.93;;;25.20;99.90;;;;;;5085148;28;20402;-94
2021/07/23 09:26:52;;;;;;;10.77;6.65;;;25.50;99.90;;;;;;5086007;28;20407;-88
2021/07/23 09:29:18;;;;;;;8.32;7.40;;;25.50;99.90;;;;;;5084868;28;20460;-88
2021/07/23 09:32:09;;;;;;;9.10;7.07;;;25.70;99.90;;;;;;5085822;28;20461;-88
2021/07/23 09:34:35;;;;;;;11.38;7.22;;;25.80;99.90;;;;;;5084318;28;20381;-89
2021/07/23 09:37:08;;;;;;;11.20;8.45;;;25.90;99.90;;;;;;5084009;28;20428;-87
2021/07/23 09:39:34;;;;;;;10.23;7.38;;;25.90;99.90;;;;;;5084069;28;20385;-89
2021/07/23 09:42:01;;;;;;;10.73;7.27;;;26.10;99.90;;;;;;5083658;28;20899;-89
2021/07/23 09:44:27;;;;;;;9.85;6.70;;;25.90;99.90;;;;;;5084076;28;20396;-89
2021/07/23 09:46:52;;;;;;;9.13;6.63;;;25.80;99.90;;;;;;5083860;28;20393;-89
2021/07/23 09:49:29;;;;;;;11.90;6.68;;;25.30;99.90;;;;;;5085381;28;20377;-89
2021/07/23 09:52:01;;;;;;;10.82;6.22;;;25.20;99.90;;;;;;5083677;28;20456;-89
2021/07/23 09:54:27;;;;;;;11.48;6.50;;;25.40;99.90;;;;;;5084298;28;20404;-88
2021/07/23 09:56:53;;;;;;;9.05;6.50;;;25.30;99.90;;;;;;5085506;28;20373;-86
2021/07/23 09:59:46;;;;;;;9.50;5.70;;;25.20;99.90;;;;;;5084169;28;20401;-88
2021/07/23 10:02:21;;;;;;;8.90;5.73;;;25.10;99.90;;;;;;5085088;28;20417;-90
2021/07/23 10:05:09;;;;;;;9.07;6.15;;;25.00;99.90;;;;;;5086600;28;20380;-89
2021/07/23 10:07:44;;;;;;;8.85;6.55;;;25.20;99.90;;;;;;5082939;28;20388;-90
2021/07/23 10:10:13;;;;;;;11.65;5.43;;;25.50;99.90;;;;;;5074211;28;20440;-89
2021/07/23 10:12:41;;;;;;;10.10;6.05;;;25.70;99.90;;;;;;5070266;28;20401;-88
2021/07/23 10:15:07;;;;;;;8.60;5.50;;;26.00;99.90;;;;;;5070688;28;20813;-88
2021/07/23 10:17:35;;;;;;;9.30;5.65;;;25.80;99.90;;;;;;5070635;28;20489;-89
2021/07/23 10:20:01;;;;;;;12.50;6.18;;;25.50;99.90;;;;;;5070778;28;20400;-86
2021/07/23 10:22:27;;;;;;;11.60;6.20;;;25.20;99.90;;;;;;5066952;28;20741;-88
2021/07/23 10:24:54;;;;;;;9.48;6.40;;;25.10;99.90;;;;;;5071484;28;20370;-90
2021/07/23 10:27:23;;;;;;;9.35;6.13;;;24.50;99.90;;;;;;5073564;28;20508;-87
2021/07/23 10:29:50;;;;;;;10.52;6.00;;;24.40;99.90;;;;;;5072954;28;20369;-90
2021/07/23 10:32:35;;;;;;;10.52;5.88;;;24.80;99.90;;;;;;5067522;28;20400;-86
2021/07/23 10:35:18;;;;;;;9.73;6.07;;;25.00;99.90;;;;;;5068504;28;20381;-91
2021/07/23 10:37:55;;;;;;;8.35;6.63;;;25.20;99.90;;;;;;5068666;28;20404;-90
2021/07/23 10:40:22;;;;;;;9.38;5.93;;;24.90;99.90;;;;;;5068118;28;20493;-89
2021/07/23 10:42:50;;;;;;;8.45;6.47;;;24.60;99.90;;;;;;5068077;28;20414;-88
2021/07/23 10:45:19;;;;;;;10.07;6.90;;;24.40;99.90;;;;;;5083270;28;20385;-93
2021/07/23 10:47:50;;;;;;;8.90;6.97;;;24.50;99.90;;;;;;5066594;28;20479;-90
2021/07/23 10:51:00;;;;;;;10.65;7.30;;;24.60;99.90;;;;;;5086344;28;20389;-88
2021/07/23 10:53:31;;;;;;;12.27;7.70;;;24.90;99.90;;;;;;5069687;28;20931;-92
2021/07/23 10:55:57;;;;;;;11.18;6.97;;;25.00;99.90;;;;;;5068159;28;21231;-92
2021/07/23 10:58:33;;;;;;;13.98;7.30;;;24.90;99.90;;;;;;5068034;28;20556;-91
2021/07/23 11:00:59;;;;;;;9.97;6.67;;;24.90;99.90;;;;;;5086722;28;20368;-87
2021/07/23 11:03:42;;;;;;;10.95;6.80;;;25.10;99.90;;;;;;5069053;28;20384;-88
2021/07/23 11:06:33;;;;;;;7.90;6.82;;;25.30;99.90;;;;;;5069428;28;20446;-87
2021/07/23 11:09:04;;;;;;;10.00;7.60;;;25.20;99.90;;;;;;5058906;28;20381;-86
2021/07/23 11:11:30;;;;;;;9.88;7.55;;;25.00;99.90;;;;;;5069071;28;20377;-89
2021/07/23 11:14:19;;;;;;;10.90;6.82;;;24.90;99.90;;;;;;5087381;28;20361;-88
2021/07/23 11:16:46;;;;;;;7.50;6.20;;;24.90;99.90;;;;;;5068052;28;20912;-89
2021/07/23 11:19:20;;;;;;;9.68;7.43;;;25.20;99.90;;;;;;5067991;28;20396;-90
2021/07/23 11:21:46;;;;;;;9.95;6.72;;;25.40;99.90;;;;;;5067114;28;20373;-89
2021/07/23 11:24:14;;;;;;;11.53;7.00;;;25.80;99.90;;;;;;5087159;28;20426;-85
2021/07/23 11:26:56;;;;;;;8.27;6.88;;;26.30;99.90;;;;;;5065621;28;20381;-88
2021/07/23 11:29:41;;;;;;;10.65;6.95;;;26.30;99.90;;;;;;5084494;28;20404;-89
2021/07/23 11:32:12;;;;;;;9.40;6.80;;;26.10;99.90;;;;;;5087276;28;20404;-88
2021/07/23 11:34:40;;;;;;;11.10;6.75;;;25.80;99.90;;;;;;5102126;28;20407;-88
2021/07/23 11:37:15;;;;;;;8.93;7.40;;;25.50;99.90;;;;;;5067993;28;20411;-88
2021/07/23 11:39:56;;;;;;;9.73;6.90;;;25.50;99.90;;;;;;5086566;28;20372;-86
2021/07/23 11:42:29;;;;;;;7.80;7.00;;;25.30;99.90;;;;;;5069307;28;20471;-87
2021/07/23 11:44:58;;;;;;;9.48;7.63;;;25.40;99.90;;;;;;5068279;28;20383;-86
2021/07/23 11:47:30;;;;;;;10.45;7.00;;;25.40;99.90;;;;;;5068446;28;20885;-88
2021/07/23 11:49:57;;;;;;;10.90;7.00;;;25.30;99.90;;;;;;5074774;28;20380;-86
2021/07/23 11:52:24;;;;;;;10.50;7.07;;;25.40;99.90;;;;;;5072912;28;20878;-85
2021/07/23 11:55:04;;;;;;;11.45;6.85;;;25.70;99.90;;;;;;5090195;28;20384;-84
2021/07/23 11:57:36;;;;;;;9.73;6.72;;;26.10;99.90;;;;;;5070908;28;20832;-85
2021/07/23 12:00:04;;;;;;;9.17;6.77;;;26.00;99.90;;;;;;5072120;28;20384;-85
2021/07/23 12:02:30;;;;;;;10.50;7.47;;;25.60;99.90;;;;;;5070917;28;20432;-87
2021/07/23 12:05:10;;;;;;;9.80;6.93;;;25.40;99.90;;;;;;5092118;28;20384;-86
2021/07/23 12:07:37;;;;;;;9.30;6.97;;;25.50;99.90;;;;;;5072092;28;20743;-88
2021/07/23 12:10:05;;;;;;;10.85;7.15;;;25.60;99.90;;;;;;5075126;28;20893;-86
2021/07/23 12:12:32;;;;;;;9.00;7.28;;;25.50;99.90;;;;;;5074141;28;20870;-86
2021/07/23 12:15:09;;;;;;;9.05;6.95;;;25.50;99.90;;;;;;5089401;28;20376;-86
2021/07/23 12:17:48;;;;;;;8.20;6.45;;;25.60;99.90;;;;;;5072994;28;20495;-85
2021/07/23 12:20:15;;;;;;;9.77;7.10;;;25.60;99.90;;;;;;5073237;28;20388;-86
2021/07/23 12:22:54;;;;;;;9.82;7.35;;;25.80;99.90;;;;;;5075695;28;20384;-86
2021/07/23 12:25:29;;;;;;;7.95;6.85;;;25.70;99.90;;;;;;5074029;28;20392;-83
2021/07/23 12:28:07;;;;;;;11.52;7.10;;;25.50;99.90;;;;;;5071238;28;20386;-82
2021/07/23 12:30:38;;;;;;;11.80;7.07;;;25.40;99.90;;;;;;5077746;28;20386;-88
2021/07/23 12:33:12;;;;;;;9.55;6.45;;;25.40;99.90;;;;;;5091499;28;20384;-86
2021/07/23 12:35:57;;;;;;;11.13;7.10;;;25.50;99.90;;;;;;5068303;28;20381;-87
2021/07/23 12:38:25;;;;;;;14.30;7.57;;;25.30;99.90;;;;;;5097161;28;20406;-88
2021/07/23 12:41:01;;;;;;;14.20;7.43;;;25.30;99.90;;;;;;5097527;28;20387;-89
2021/07/23 12:43:28;;;;;;;9.55;7.05;;;25.60;99.90;;;;;;5096586;28;20391;-88
2021/07/23 12:45:59;;;;;;;8.10;6.78;;;25.80;99.90;;;;;;5094162;28;20382;-86
2021/07/23 12:48:44;;;;;;;8.48;6.53;;;26.10;99.90;;;;;;5114206;28;20907;-86
2021/07/23 12:51:11;;;;;;;11.73;6.72;;;26.20;99.40;;;;;;5094910;28;20465;-86
2021/07/23 12:53:39;;;;;;;8.90;6.53;;;26.00;99.90;;;;;;5093414;28;20387;-85
2021/07/23 12:56:07;;;;;;;10.82;7.10;;;25.90;99.90;;;;;;5095081;28;20382;-87
2021/07/23 12:58:45;;;;;;;16.17;7.50;;;25.40;99.90;;;;;;5095758;28;20421;-88